Time;durP1;ratioP1;P1;durP2;ratioP2;P2;SDS_P1;SDS_P2;PMS_P1;PMS_P2;Temp;Humidity;BMP_temperature;BMP_pressure;BME280_temperature;BME280_humidity;BME280_pressure;Samples;Min_cycle;Max_cycle;Signal;HPM_P1;HPM_P2
2021/04/08 00:02:01;;;;;;;3.40;1.20;;;4.90;61.90;;;;;;6243467;23;20014;-77
2021/04/08 00:04:27;;;;;;;1.90;1.23;;;4.90;61.90;;;;;;6242717;23;20012;-77
2021/04/08 00:06:53;;;;;;;2.23;1.07;;;4.90;61.90;;;;;;6243372;23;20012;-78
2021/04/08 00:09:19;;;;;;;1.63;1.17;;;4.90;61.90;;;;;;6244491;23;20356;-78
2021/04/08 00:11:45;;;;;;;2.17;1.10;;;5.00;61.70;;;;;;6243902;23;20026;-77
2021/04/08 00:14:12;;;;;;;2.37;1.07;;;4.90;61.60;;;;;;6244439;23;20435;-77
2021/04/08 00:16:37;;;;;;;2.50;1.13;;;4.90;61.40;;;;;;6244939;23;20090;-78
2021/04/08 00:19:07;;;;;;;3.37;1.33;;;4.90;61.70;;;;;;6243808;23;20439;-78
2021/04/08 00:21:33;;;;;;;1.30;0.90;;;4.90;61.20;;;;;;6245217;23;20000;-78
2021/04/08 00:23:59;;;;;;;1.40;0.90;;;4.80;61.70;;;;;;6244472;23;20071;-77
2021/04/08 00:26:24;;;;;;;5.33;1.40;;;4.70;61.40;;;;;;6243299;23;20023;-77
2021/04/08 00:28:50;;;;;;;5.13;1.20;;;4.70;61.30;;;;;;6245285;23;20051;-77
2021/04/08 00:31:16;;;;;;;1.53;0.73;;;4.80;60.90;;;;;;6242565;23;20549;-77
2021/04/08 00:33:42;;;;;;;2.93;0.90;;;4.80;60.40;;;;;;6243579;23;20004;-77
2021/04/08 00:36:07;;;;;;;3.13;0.87;;;4.80;60.40;;;;;;6242705;23;20023;-77
2021/04/08 00:38:33;;;;;;;2.33;1.10;;;4.80;60.50;;;;;;6244964;23;20439;-77
2021/04/08 00:41:00;;;;;;;6.90;1.27;;;4.80;61.60;;;;;;6269137;22;20058;-77
2021/04/08 00:43:26;;;;;;;4.47;1.60;;;4.80;62.80;;;;;;6242424;23;20083;-78
2021/04/08 00:45:51;;;;;;;3.57;1.40;;;4.70;63.30;;;;;;6245018;23;20043;-77
2021/04/08 00:48:17;;;;;;;2.97;1.10;;;4.70;63.50;;;;;;6244408;23;20393;-77
2021/04/08 00:50:43;;;;;;;1.97;1.40;;;4.60;62.90;;;;;;6269061;22;20005;-78
2021/04/08 00:53:13;;;;;;;3.23;1.13;;;4.60;63.30;;;;;;6242651;23;20000;-77
2021/04/08 00:55:43;;;;;;;3.17;1.30;;;4.60;63.70;;;;;;6245397;23;20004;-78
2021/04/08 00:58:10;;;;;;;2.27;1.33;;;4.50;63.60;;;;;;6242442;23;20014;-78
2021/04/08 01:00:40;;;;;;;2.23;1.40;;;4.60;63.10;;;;;;6245408;23;20028;-78
2021/04/08 01:03:06;;;;;;;2.77;1.20;;;4.50;63.10;;;;;;6244537;23;20030;-77
2021/04/08 01:05:32;;;;;;;2.80;1.33;;;4.50;62.90;;;;;;6245247;23;20008;-78
2021/04/08 01:07:58;;;;;;;2.73;1.40;;;4.50;62.60;;;;;;6244985;23;20012;-78
2021/04/08 01:10:24;;;;;;;4.13;1.40;;;4.50;62.50;;;;;;6270170;22;20008;-77
2021/04/08 01:12:58;;;;;;;3.60;1.70;;;4.50;62.50;;;;;;6270484;22;20055;-78
2021/04/08 01:15:24;;;;;;;3.13;1.70;;;4.50;62.50;;;;;;6244353;23;20344;-77
2021/04/08 01:18:08;;;;;;;3.33;1.67;;;4.40;62.50;;;;;;6244936;23;20012;-77
2021/04/08 01:20:56;;;;;;;2.10;1.13;;;4.40;62.50;;;;;;6246737;23;20004;-77
2021/04/08 01:23:51;;;;;;;4.30;1.67;;;4.40;62.50;;;;;;6244787;23;20001;-77
2021/04/08 01:26:35;;;;;;;4.07;1.20;;;4.40;62.50;;;;;;6244563;23;20043;-77
2021/04/08 01:29:14;;;;;;;4.47;1.50;;;4.40;62.50;;;;;;6245430;23;20008;-77
2021/04/08 01:31:42;;;;;;;3.13;1.30;;;4.40;62.20;;;;;;6246835;23;20007;-77
2021/04/08 01:34:11;;;;;;;3.17;1.43;;;4.40;62.30;;;;;;6244045;23;20319;-77
2021/04/08 01:36:38;;;;;;;6.50;1.37;;;4.40;62.30;;;;;;6244612;23;20039;-77
2021/04/08 01:39:16;;;;;;;5.80;1.50;;;4.50;62.50;;;;;;6246389;23;19997;-77
2021/04/08 01:41:45;;;;;;;4.03;1.53;;;4.40;62.60;;;;;;6245140;23;20004;-77
2021/04/08 01:44:16;;;;;;;3.10;1.90;;;4.40;63.10;;;;;;6244067;23;20322;-77
2021/04/08 01:46:46;;;;;;;4.10;1.60;;;4.40;63.90;;;;;;6270977;22;20012;-78
2021/04/08 01:49:14;;;;;;;2.63;1.43;;;4.40;63.10;;;;;;6244511;23;20015;-78
2021/04/08 01:51:40;;;;;;;3.93;2.10;;;4.40;63.20;;;;;;6245177;23;20023;-78
2021/04/08 01:54:08;;;;;;;4.37;1.33;;;4.40;63.10;;;;;;6244573;23;20110;-78
2021/04/08 01:56:36;;;;;;;4.97;1.70;;;4.40;63.10;;;;;;6270674;22;20423;-78
2021/04/08 01:59:03;;;;;;;4.27;1.63;;;4.40;63.20;;;;;;6244977;23;20062;-78
2021/04/08 02:01:29;;;;;;;5.20;2.00;;;4.40;63.70;;;;;;6244468;23;20031;-78
2021/04/08 02:03:56;;;;;;;4.63;1.80;;;4.30;63.00;;;;;;6244721;23;20423;-77
2021/04/08 02:06:24;;;;;;;4.03;1.70;;;4.40;62.80;;;;;;6245458;23;20419;-78
2021/04/08 02:08:52;;;;;;;2.83;1.40;;;4.40;62.20;;;;;;6244948;23;20010;-78
2021/04/08 02:11:19;;;;;;;7.53;1.90;;;4.40;61.90;;;;;;6245187;23;20071;-78
2021/04/08 02:13:47;;;;;;;3.80;1.80;;;4.40;61.80;;;;;;6246450;23;20426;-78
2021/04/08 02:16:14;;;;;;;3.30;1.70;;;4.40;62.00;;;;;;6245048;23;20066;-77
2021/04/08 02:18:41;;;;;;;3.13;1.67;;;4.40;62.20;;;;;;6244765;23;20031;-77
2021/04/08 02:21:08;;;;;;;3.27;1.60;;;4.50;62.20;;;;;;6245875;23;20011;-78
2021/04/08 02:23:36;;;;;;;2.67;1.40;;;4.50;62.40;;;;;;6244716;23;20054;-78
2021/04/08 02:26:03;;;;;;;2.73;1.87;;;4.50;62.30;;;;;;6243852;23;20016;-78
2021/04/08 02:28:33;;;;;;;3.07;1.67;;;4.50;62.20;;;;;;6243859;23;20023;-78
2021/04/08 02:30:59;;;;;;;5.50;1.63;;;4.60;61.90;;;;;;6245736;22;20000;-78
2021/04/08 02:33:27;;;;;;;4.00;1.80;;;4.60;61.80;;;;;;6244432;23;20220;-78
2021/04/08 02:35:55;;;;;;;5.73;1.63;;;4.40;61.90;;;;;;6244844;23;20011;-78
2021/04/08 02:38:23;;;;;;;5.33;1.47;;;4.40;62.00;;;;;;6244132;23;20000;-77
2021/04/08 02:40:49;;;;;;;5.23;1.50;;;4.40;62.20;;;;;;6244856;23;20014;-78
2021/04/08 02:43:15;;;;;;;4.07;1.50;;;4.40;62.50;;;;;;6243806;23;20062;-78
2021/04/08 02:45:41;;;;;;;3.83;1.73;;;4.30;62.70;;;;;;6270468;22;20012;-78
2021/04/08 02:48:13;;;;;;;2.57;1.80;;;4.30;62.70;;;;;;6245394;23;20328;-77
2021/04/08 02:50:40;;;;;;;;;;;4.30;62.50;;;;;;6246658;23;20004;-77
2021/04/08 02:53:21;;;;;;;4.10;1.60;;;4.30;62.40;;;;;;6245431;23;19900;-78
2021/04/08 02:55:56;;;;;;;2.33;1.50;;;4.20;62.40;;;;;;6246085;23;20007;-78
2021/04/08 02:58:26;;;;;;;3.30;1.67;;;4.20;61.60;;;;;;6243432;23;20018;-77
2021/04/08 03:00:56;;;;;;;3.53;2.10;;;4.30;61.60;;;;;;6244385;23;20001;-78
2021/04/08 03:03:31;;;;;;;2.17;1.60;;;4.30;61.40;;;;;;6269310;22;20012;-78
2021/04/08 03:06:00;;;;;;;2.77;1.40;;;4.30;60.70;;;;;;6245315;23;20027;-78
2021/04/08 03:08:27;;;;;;;3.93;1.80;;;4.30;60.00;;;;;;6243475;23;20321;-77
2021/04/08 03:10:54;;;;;;;2.93;1.47;;;4.30;59.90;;;;;;6245839;23;20001;-77
2021/04/08 03:13:22;;;;;;;2.90;1.50;;;4.30;60.10;;;;;;6243335;23;20481;-78
2021/04/08 03:15:48;;;;;;;2.30;1.23;;;4.30;60.30;;;;;;6244371;23;20022;-77
2021/04/08 03:18:18;;;;;;;2.23;1.40;;;4.30;60.30;;;;;;6244506;23;20082;-77
2021/04/08 03:20:51;;;;;;;4.60;1.70;;;4.20;60.50;;;;;;6245671;22;20073;-77
2021/04/08 03:23:19;;;;;;;4.73;1.47;;;4.30;60.10;;;;;;6242934;23;20008;-77
2021/04/08 03:25:48;;;;;;;2.00;1.53;;;4.20;59.80;;;;;;6243644;23;20012;-78
2021/04/08 03:28:15;;;;;;;7.17;2.10;;;4.20;59.90;;;;;;6244778;23;20058;-78
2021/04/08 03:30:42;;;;;;;3.40;1.80;;;4.10;60.20;;;;;;6244121;23;20474;-75
2021/04/08 03:33:08;;;;;;;3.73;1.90;;;4.10;60.20;;;;;;6268186;22;20004;-77
2021/04/08 03:35:36;;;;;;;5.17;1.80;;;4.20;60.70;;;;;;6243960;23;20390;-78
2021/04/08 03:38:03;;;;;;;2.50;1.43;;;4.20;60.50;;;;;;6245267;23;20031;-78
2021/04/08 03:40:29;;;;;;;4.20;1.87;;;4.20;60.70;;;;;;6244646;23;20086;-78
2021/04/08 03:42:55;;;;;;;3.07;1.80;;;4.20;60.30;;;;;;6269971;22;20312;-78
2021/04/08 03:45:21;;;;;;;3.50;1.80;;;4.20;59.90;;;;;;6243129;23;20070;-78
2021/04/08 03:47:48;;;;;;;5.90;1.90;;;4.20;59.70;;;;;;6244442;23;20008;-78
2021/04/08 03:50:15;;;;;;;3.70;2.03;;;4.10;59.40;;;;;;6244439;22;20079;-77
2021/04/08 03:52:44;;;;;;;3.93;1.90;;;4.10;59.20;;;;;;6244078;23;20075;-78
2021/04/08 03:55:11;;;;;;;5.43;2.40;;;4.00;59.00;;;;;;6243598;23;20355;-77
2021/04/08 03:57:40;;;;;;;4.17;2.13;;;3.90;59.20;;;;;;6245291;23;20007;-78
2021/04/08 04:00:11;;;;;;;5.17;2.10;;;4.00;59.10;;;;;;6243365;23;20427;-78
2021/04/08 04:02:39;;;;;;;5.82;2.40;;;4.00;58.80;;;;;;6245416;23;20000;-77
2021/04/08 04:05:07;;;;;;;3.43;1.90;;;3.90;59.10;;;;;;6245226;23;20000;-78
2021/04/08 04:07:35;;;;;;;6.43;2.40;;;3.90;59.90;;;;;;6244077;23;20012;-77
2021/04/08 04:10:01;;;;;;;4.77;2.40;;;4.00;59.30;;;;;;6243895;23;20482;-77
2021/04/08 04:12:28;;;;;;;3.07;2.10;;;4.10;58.90;;;;;;6243033;23;21037;-78
2021/04/08 04:14:59;;;;;;;4.90;2.20;;;4.10;58.40;;;;;;6245246;23;19998;-77
2021/04/08 04:17:29;;;;;;;5.30;2.42;;;4.20;58.30;;;;;;6242928;23;20320;-78
2021/04/08 04:19:55;;;;;;;4.70;2.00;;;4.20;58.00;;;;;;6245231;23;20051;-78
2021/04/08 04:22:21;;;;;;;5.00;2.03;;;4.20;58.10;;;;;;6242744;23;20056;-78
2021/04/08 04:24:47;;;;;;;5.03;2.37;;;4.10;58.20;;;;;;6245005;23;20020;-77
2021/04/08 04:27:13;;;;;;;6.57;2.57;;;4.10;58.40;;;;;;6242736;23;20505;-77
2021/04/08 04:29:39;;;;;;;7.30;2.10;;;4.10;58.20;;;;;;6244915;23;19996;-77
2021/04/08 04:32:08;;;;;;;5.87;2.70;;;4.10;58.60;;;;;;6244897;23;20023;-78
2021/04/08 04:34:34;;;;;;;5.93;3.03;;;4.10;58.40;;;;;;6245029;22;20008;-78
2021/04/08 04:37:00;;;;;;;6.37;2.67;;;4.10;58.30;;;;;;6244870;23;20004;-77
2021/04/08 04:39:25;;;;;;;6.17;2.47;;;4.10;58.40;;;;;;6244875;23;20343;-77
2021/04/08 04:41:51;;;;;;;4.90;2.63;;;4.10;58.10;;;;;;6245679;23;20020;-77
2021/04/08 04:44:17;;;;;;;6.60;2.93;;;4.00;58.50;;;;;;6244113;23;20091;-77
2021/04/08 04:46:42;;;;;;;6.00;2.47;;;4.00;59.00;;;;;;6247023;23;20054;-77
2021/04/08 04:49:08;;;;;;;4.63;2.40;;;4.00;58.70;;;;;;6270317;22;20004;-77
2021/04/08 04:51:34;;;;;;;7.43;2.77;;;4.00;58.70;;;;;;6245294;23;20182;-77
2021/04/08 04:53:59;;;;;;;6.43;2.50;;;4.00;59.00;;;;;;6247065;23;20025;-77
2021/04/08 04:56:25;;;;;;;6.00;2.60;;;4.00;58.50;;;;;;6245865;23;19996;-78
2021/04/08 04:58:51;;;;;;;5.90;2.30;;;4.10;58.10;;;;;;6245451;23;20423;-78
2021/04/08 05:01:16;;;;;;;6.70;2.50;;;4.10;58.10;;;;;;6244990;23;20644;-77
2021/04/08 05:03:42;;;;;;;5.07;2.37;;;4.20;57.90;;;;;;6247199;23;20000;-78
2021/04/08 05:06:08;;;;;;;4.40;2.77;;;4.20;58.10;;;;;;6244889;23;20005;-78
2021/04/08 05:08:33;;;;;;;6.37;2.30;;;4.20;58.10;;;;;;6245717;23;20008;-77
2021/04/08 05:10:59;;;;;;;5.73;2.87;;;4.20;58.10;;;;;;6244833;23;20428;-77
2021/04/08 05:13:25;;;;;;;6.07;2.87;;;4.20;58.20;;;;;;6243642;23;20018;-77
2021/04/08 05:15:50;;;;;;;5.33;2.60;;;4.20;58.30;;;;;;6246749;23;20000;-77
2021/04/08 05:18:16;;;;;;;5.50;2.43;;;4.20;58.10;;;;;;6245619;23;20036;-77
2021/04/08 05:20:42;;;;;;;7.43;2.90;;;4.20;58.20;;;;;;6247019;23;20007;-76
2021/04/08 05:23:08;;;;;;;7.23;2.77;;;4.20;58.40;;;;;;6244445;23;20478;-76
2021/04/08 05:25:34;;;;;;;8.27;3.03;;;4.20;58.30;;;;;;6244629;23;20078;-75
2021/04/08 05:28:00;;;;;;;5.83;2.80;;;4.20;58.30;;;;;;6244731;23;20016;-75
2021/04/08 05:30:26;;;;;;;5.17;2.47;;;4.20;58.20;;;;;;6244098;23;20377;-75
2021/04/08 05:32:51;;;;;;;4.27;2.43;;;4.20;58.10;;;;;;6245002;23;20005;-77
2021/04/08 05:35:17;;;;;;;6.50;2.90;;;4.20;58.20;;;;;;6244271;23;20012;-88
2021/04/08 05:37:43;;;;;;;5.13;2.37;;;4.30;58.20;;;;;;6270855;22;20057;-78
2021/04/08 05:40:09;;;;;;;5.27;2.83;;;4.30;58.10;;;;;;6246102;23;20000;-79
2021/04/08 05:42:35;;;;;;;5.07;2.37;;;4.40;58.10;;;;;;6246791;23;20003;-76
2021/04/08 05:45:00;;;;;;;5.50;2.77;;;4.40;57.80;;;;;;6270495;22;20039;-76
2021/04/08 05:47:26;;;;;;;4.80;2.60;;;4.40;57.80;;;;;;6245434;23;20308;-76
2021/04/08 05:49:52;;;;;;;4.97;2.43;;;4.40;57.60;;;;;;6244700;23;20127;-76
2021/04/08 05:52:17;;;;;;;5.63;3.10;;;4.50;57.80;;;;;;6245072;23;20016;-81
2021/04/08 05:54:43;;;;;;;7.63;2.80;;;4.50;57.80;;;;;;6245759;23;20305;-80
2021/04/08 05:57:09;;;;;;;6.93;3.10;;;4.50;58.00;;;;;;6270404;22;20083;-80
2021/04/08 05:59:34;;;;;;;9.97;3.33;;;4.60;58.00;;;;;;6245290;23;20382;-80
2021/04/08 06:02:00;;;;;;;5.70;3.00;;;4.60;57.90;;;;;;6271119;22;20004;-80
2021/04/08 06:04:26;;;;;;;5.97;3.10;;;4.60;58.30;;;;;;6271149;22;20088;-80
2021/04/08 06:06:51;;;;;;;6.17;3.33;;;4.70;58.00;;;;;;6247134;23;20007;-79
2021/04/08 06:09:17;;;;;;;4.20;2.70;;;4.70;57.10;;;;;;6245008;23;20011;-80
2021/04/08 06:11:42;;;;;;;6.83;3.20;;;4.80;57.00;;;;;;6271467;22;20083;-79
2021/04/08 06:14:08;;;;;;;7.27;3.67;;;4.80;57.30;;;;;;6270842;22;20293;-80
2021/04/08 06:16:34;;;;;;;4.80;2.70;;;4.70;57.70;;;;;;6245733;23;20012;-80
2021/04/08 06:18:59;;;;;;;6.07;3.20;;;4.70;57.60;;;;;;6245701;23;20016;-80
2021/04/08 06:21:25;;;;;;;6.50;3.20;;;4.70;56.90;;;;;;6245173;23;20435;-79
2021/04/08 06:23:54;;;;;;;7.80;3.03;;;4.80;56.50;;;;;;6245414;23;20420;-79
2021/04/08 06:26:20;;;;;;;5.77;3.13;;;4.80;56.70;;;;;;6246499;23;19997;-80
2021/04/08 06:28:45;;;;;;;8.37;3.27;;;4.90;56.20;;;;;;6247143;23;20415;-80
2021/04/08 06:31:11;;;;;;;7.30;3.10;;;4.90;56.10;;;;;;6245878;23;19992;-80
2021/04/08 06:33:37;;;;;;;8.33;3.63;;;4.70;56.70;;;;;;6245726;23;20008;-80
2021/04/08 06:36:03;;;;;;;7.90;3.70;;;4.80;57.00;;;;;;6245195;23;20004;-80
2021/04/08 06:38:29;;;;;;;7.07;3.63;;;4.90;56.50;;;;;;6246102;23;20071;-80
2021/04/08 06:40:54;;;;;;;6.63;3.60;;;4.90;56.40;;;;;;6245375;23;20004;-81
2021/04/08 06:43:20;;;;;;;7.33;3.73;;;5.00;56.00;;;;;;6244834;23;20004;-80
2021/04/08 06:45:48;;;;;;;9.50;3.77;;;5.00;56.00;;;;;;6247295;23;20420;-79
2021/04/08 06:48:21;;;;;;;7.67;3.67;;;5.10;55.80;;;;;;6244981;23;20012;-81
2021/04/08 06:50:51;;;;;;;7.43;3.60;;;5.10;55.80;;;;;;6245066;23;19996;-80
2021/04/08 06:53:17;;;;;;;10.90;3.60;;;5.10;55.50;;;;;;6244883;23;20011;-80
2021/04/08 06:55:44;;;;;;;6.07;3.80;;;5.10;56.00;;;;;;6246743;23;20130;-80
2021/04/08 06:58:10;;;;;;;4.70;3.20;;;5.10;56.30;;;;;;6244019;23;20019;-80
2021/04/08 07:00:36;;;;;;;7.87;4.33;;;5.10;56.40;;;;;;6246860;23;20010;-80
2021/04/08 07:03:07;;;;;;;8.20;3.63;;;5.10;55.80;;;;;;6246720;23;20027;-80
2021/04/08 07:05:33;;;;;;;7.67;2.93;;;5.10;55.80;;;;;;6270416;22;20004;-80
2021/04/08 07:07:58;;;;;;;6.40;3.57;;;5.20;56.10;;;;;;6246668;23;20723;-80
2021/04/08 07:10:25;;;;;;;5.87;3.50;;;5.10;56.00;;;;;;6244763;23;20027;-80
2021/04/08 07:12:53;;;;;;;7.67;3.97;;;5.10;56.40;;;;;;6244992;23;20016;-80
2021/04/08 07:15:19;;;;;;;7.67;2.90;;;5.20;56.20;;;;;;6244571;23;20031;-80
2021/04/08 07:17:45;;;;;;;6.13;3.63;;;5.20;55.60;;;;;;6246454;23;20075;-80
2021/04/08 07:20:11;;;;;;;6.03;3.47;;;5.10;55.80;;;;;;6244688;23;20368;-81
2021/04/08 07:22:36;;;;;;;8.00;3.60;;;5.10;55.70;;;;;;6245234;23;20083;-81
2021/04/08 07:25:12;;;;;;;6.17;3.23;;;5.20;55.60;;;;;;6246134;23;20043;-80
2021/04/08 07:27:37;;;;;;;8.47;3.63;;;5.20;55.60;;;;;;6245688;23;20008;-80
2021/04/08 07:30:04;;;;;;;11.60;3.67;;;5.20;55.40;;;;;;6245156;23;20053;-79
2021/04/08 07:32:38;;;;;;;6.80;3.67;;;5.20;56.00;;;;;;6246035;22;19996;-80
2021/04/08 07:35:16;;;;;;;9.43;3.63;;;5.10;56.40;;;;;;6244930;23;20004;-80
2021/04/08 07:37:43;;;;;;;6.87;3.77;;;4.90;56.90;;;;;;6245219;23;20012;-80
2021/04/08 07:40:19;;;;;;;8.43;3.70;;;4.70;57.80;;;;;;6245923;23;20016;-81
2021/04/08 07:42:45;;;;;;;6.47;3.93;;;4.70;58.10;;;;;;6246063;23;20011;-80
2021/04/08 07:45:21;;;;;;;8.13;3.60;;;4.70;58.50;;;;;;6245876;23;19997;-80
2021/04/08 07:47:57;;;;;;;6.70;4.00;;;4.70;56.90;;;;;;6245258;23;20304;-80
2021/04/08 07:50:23;;;;;;;6.63;3.57;;;4.70;55.10;;;;;;6244317;23;20023;-80
2021/04/08 07:52:49;;;;;;;6.93;3.67;;;4.70;55.30;;;;;;6246206;23;19999;-80
2021/04/08 07:55:28;;;;;;;7.40;4.07;;;4.70;56.10;;;;;;6245780;22;20046;-80
2021/04/08 07:57:59;;;;;;;11.17;4.53;;;4.70;56.20;;;;;;6246485;23;20004;-80
2021/04/08 08:00:58;;;;;;;9.57;4.00;;;4.80;56.80;;;;;;6245847;23;20079;-80
2021/04/08 08:03:28;;;;;;;10.03;4.80;;;4.90;56.80;;;;;;6245751;23;20028;-80
2021/04/08 08:05:58;;;;;;;7.43;3.93;;;4.90;55.70;;;;;;6244814;23;20020;-80
2021/04/08 08:08:34;;;;;;;7.37;3.90;;;4.90;55.60;;;;;;6245927;23;20004;-82
2021/04/08 08:11:03;;;;;;;8.97;3.67;;;4.90;55.40;;;;;;6245995;23;19996;-80
2021/04/08 08:13:33;;;;;;;9.23;3.97;;;5.00;55.20;;;;;;6269362;22;20166;-81
2021/04/08 08:16:00;;;;;;;6.13;3.90;;;4.80;56.00;;;;;;6246107;23;20007;-80
2021/04/08 08:18:35;;;;;;;6.90;3.80;;;4.80;56.30;;;;;;6244270;23;20064;-81
2021/04/08 08:21:08;;;;;;;8.07;3.50;;;4.90;55.30;;;;;;6244766;23;20012;-81
2021/04/08 08:23:42;;;;;;;7.17;3.10;;;4.90;54.40;;;;;;6243716;23;20081;-81
2021/04/08 08:26:27;;;;;;;5.80;2.90;;;5.00;53.60;;;;;;6244728;23;20062;-80
2021/04/08 08:28:54;;;;;;;5.13;2.80;;;5.20;52.20;;;;;;6244734;22;20004;-80
2021/04/08 08:31:39;;;;;;;5.67;3.17;;;5.20;49.70;;;;;;6244195;23;20008;-81
2021/04/08 08:34:10;;;;;;;7.70;3.23;;;5.40;51.20;;;;;;6245909;23;20424;-80
2021/04/08 08:36:37;;;;;;;5.90;2.70;;;5.50;50.70;;;;;;6244780;23;20004;-80
2021/04/08 08:39:09;;;;;;;4.80;2.70;;;5.50;50.70;;;;;;6246063;23;20000;-80
2021/04/08 08:41:37;;;;;;;4.40;2.72;;;5.70;50.60;;;;;;6244791;23;20110;-81
2021/04/08 08:44:06;;;;;;;6.13;2.80;;;5.70;50.50;;;;;;6246305;23;20036;-81
2021/04/08 08:46:37;;;;;;;6.63;2.97;;;5.90;49.30;;;;;;6244210;23;20084;-81
2021/04/08 08:49:03;;;;;;;4.65;2.83;;;5.90;48.60;;;;;;6244810;23;20005;-81
2021/04/08 08:51:29;;;;;;;4.33;2.70;;;5.80;48.20;;;;;;6245441;22;20193;-81
2021/04/08 08:53:56;;;;;;;8.27;3.20;;;5.90;48.90;;;;;;6246054;23;20051;-81
2021/04/08 08:56:25;;;;;;;4.60;2.30;;;5.90;48.10;;;;;;6244134;23;20012;-81
2021/04/08 08:58:52;;;;;;;5.53;2.70;;;5.90;47.60;;;;;;6244642;23;20009;-81
2021/04/08 09:01:19;;;;;;;8.60;2.93;;;5.90;46.70;;;;;;6245748;22;20000;-81
2021/04/08 09:03:45;;;;;;;3.53;2.23;;;6.00;47.10;;;;;;6246079;22;20416;-81
2021/04/08 09:06:11;;;;;;;4.60;2.53;;;6.00;45.10;;;;;;6269261;22;20008;-81
2021/04/08 09:08:40;;;;;;;7.50;3.90;;;5.90;45.00;;;;;;6246339;23;20431;-81
2021/04/08 09:11:05;;;;;;;6.67;3.10;;;5.80;45.30;;;;;;6244590;23;20004;-80
2021/04/08 09:13:31;;;;;;;5.50;2.90;;;5.90;44.50;;;;;;6244838;23;20186;-81
2021/04/08 09:16:02;;;;;;;3.87;2.53;;;5.80;45.20;;;;;;6244347;23;20308;-82
2021/04/08 09:18:27;;;;;;;7.17;3.07;;;5.80;45.40;;;;;;6245473;22;20004;-81
2021/04/08 09:20:55;;;;;;;6.03;2.80;;;5.80;45.10;;;;;;6270040;22;20022;-81
2021/04/08 09:23:22;;;;;;;5.70;2.83;;;5.80;44.80;;;;;;6245516;23;20502;-80
2021/04/08 09:25:57;;;;;;;4.23;2.70;;;5.80;45.60;;;;;;6245955;23;20023;-81
2021/04/08 09:28:30;;;;;;;7.10;2.57;;;5.90;45.90;;;;;;6247009;23;19997;-81
2021/04/08 09:36:27;;;;;;;7.73;3.50;;;5.90;46.10;;;;;;6247464;23;20054;-81
2021/04/08 09:38:56;;;;;;;5.60;2.80;;;6.10;45.30;;;;;;6225804;23;20020;-81
2021/04/08 09:41:43;;;;;;;6.43;2.50;;;6.20;45.30;;;;;;6247348;23;20001;-83
2021/04/08 09:44:11;;;;;;;6.03;2.60;;;6.20;44.10;;;;;;6245653;23;20004;-83
2021/04/08 09:46:42;;;;;;;5.07;2.43;;;6.30;44.60;;;;;;6246635;23;20051;-86
2021/04/08 09:49:09;;;;;;;16.40;6.45;;;6.40;44.30;;;;;;6247989;23;20000;-83
2021/04/08 09:51:45;;;;;;;9.60;3.90;;;6.60;44.20;;;;;;6245263;23;20004;-80
2021/04/08 09:54:13;;;;;;;7.23;2.53;;;6.80;45.70;;;;;;6246582;23;19997;-79
2021/04/08 09:56:59;;;;;;;4.47;2.17;;;7.00;44.50;;;;;;6247545;23;20054;-83
2021/04/08 09:59:27;;;;;;;5.43;2.27;;;7.30;44.00;;;;;;6244660;23;20461;-82
2021/04/08 10:01:52;;;;;;;4.17;2.50;;;7.30;42.60;;;;;;6246047;23;20000;-83
2021/04/08 10:04:21;;;;;;;3.87;2.33;;;7.40;43.00;;;;;;6245181;23;20043;-78
2021/04/08 10:06:59;;;;;;;5.37;2.43;;;7.30;41.30;;;;;;6245727;23;20011;-80
2021/04/08 10:09:25;;;;;;;4.40;2.40;;;7.30;41.00;;;;;;6244886;23;20008;-81
2021/04/08 10:11:51;;;;;;;4.70;2.60;;;7.30;42.10;;;;;;6245158;23;20323;-80
2021/04/08 10:14:30;;;;;;;66.57;26.23;;;7.40;41.80;;;;;;6270081;22;20428;-79
2021/04/08 10:16:59;;;;;;;8.33;4.17;;;7.60;43.10;;;;;;6271498;22;20082;-83
2021/04/08 10:19:54;;;;;;;5.70;2.97;;;7.80;43.90;;;;;;6242315;23;20016;-77
2021/04/08 10:22:20;;;;;;;7.97;4.10;;;7.80;40.80;;;;;;6217143;23;20019;-77
2021/04/08 10:24:46;;;;;;;37.83;20.13;;;7.80;41.10;;;;;;6269539;22;20020;-78
2021/04/08 10:27:17;;;;;;;5.40;3.30;;;7.80;42.70;;;;;;6243502;23;20004;-77
2021/04/08 10:29:44;;;;;;;4.53;2.58;;;8.00;44.30;;;;;;6245897;23;20058;-76
2021/04/08 10:32:10;;;;;;;6.23;2.80;;;8.20;43.00;;;;;;6245235;22;20000;-78
2021/04/08 10:34:41;;;;;;;15.63;8.67;;;8.20;41.50;;;;;;6245580;23;20071;-75
2021/04/08 10:37:08;;;;;;;10.63;5.13;;;8.30;41.60;;;;;;6245324;23;20000;-76
2021/04/08 10:39:36;;;;;;;9.30;3.47;;;8.30;41.60;;;;;;6243055;23;20004;-75
2021/04/08 10:42:09;;;;;;;4.30;2.30;;;8.30;42.60;;;;;;6244874;22;20006;-75
2021/04/08 10:44:38;;;;;;;3.47;2.10;;;8.40;42.20;;;;;;6242859;23;20439;-75
2021/04/08 10:47:07;;;;;;;3.27;2.00;;;8.50;42.30;;;;;;6245443;23;20071;-77
2021/04/08 10:49:35;;;;;;;4.90;2.50;;;8.50;44.00;;;;;;6243105;22;20019;-77
2021/04/08 10:52:07;;;;;;;4.87;2.07;;;8.60;40.60;;;;;;6243596;23;20009;-76
2021/04/08 10:54:34;;;;;;;;;;;8.70;40.70;;;;;;6243666;23;20439;-77
2021/04/08 10:57:00;;;;;;;4.57;1.87;;;8.70;39.60;;;;;;6245509;23;20308;-76
2021/04/08 10:59:28;;;;;;;3.90;1.90;;;8.70;40.40;;;;;;6244434;23;20075;-77
2021/04/08 11:01:54;;;;;;;6.53;2.67;;;8.70;41.00;;;;;;6243907;23;20432;-77
2021/04/08 11:04:22;;;;;;;6.05;2.47;;;8.70;40.40;;;;;;6243309;23;20430;-77
2021/04/08 11:06:52;;;;;;;4.33;2.43;;;8.70;40.60;;;;;;6244128;23;20194;-77
2021/04/08 11:09:25;;;;;;;5.73;2.60;;;8.60;40.10;;;;;;6245401;23;20046;-77
2021/04/08 11:11:52;;;;;;;6.70;2.60;;;8.50;40.10;;;;;;6244455;23;20070;-77
2021/04/08 11:14:27;;;;;;;4.93;2.40;;;8.50;41.00;;;;;;6243083;23;20431;-77
2021/04/08 11:16:57;;;;;;;5.17;2.63;;;8.60;40.20;;;;;;6245417;23;20008;-78
2021/04/08 11:19:23;;;;;;;4.33;2.30;;;8.60;40.20;;;;;;6244616;23;20046;-77
2021/04/08 11:21:50;;;;;;;3.67;2.45;;;8.60;40.20;;;;;;6244996;23;19997;-77
2021/04/08 11:24:16;;;;;;;3.70;2.15;;;8.80;40.60;;;;;;6268187;22;20016;-77
2021/04/08 11:27:00;;;;;;;5.20;2.40;;;9.00;41.00;;;;;;6243884;23;20458;-81
2021/04/08 11:29:27;;;;;;;5.25;2.60;;;9.10;40.20;;;;;;6244969;23;20000;-77
2021/04/08 11:32:10;;;;;;;5.73;2.63;;;9.10;40.40;;;;;;6243713;23;20039;-78
2021/04/08 11:34:59;;;;;;;5.15;2.40;;;9.00;40.10;;;;;;6243000;23;20007;-77
2021/04/08 11:37:39;;;;;;;5.85;2.42;;;9.00;40.90;;;;;;6243355;23;20011;-77
2021/04/08 11:40:07;;;;;;;4.77;2.40;;;8.90;40.60;;;;;;6243662;23;20016;-77
2021/04/08 11:42:40;;;;;;;6.45;2.72;;;8.80;40.90;;;;;;6242964;23;20012;-77
2021/04/08 11:45:30;;;;;;;4.80;2.80;;;8.60;40.60;;;;;;6242895;23;20036;-76
2021/04/08 11:48:04;;;;;;;3.03;2.10;;;8.60;40.40;;;;;;6243599;23;20024;-75
2021/04/08 11:50:34;;;;;;;5.55;2.42;;;8.70;39.80;;;;;;6241943;23;20006;-77
2021/04/08 11:53:12;;;;;;;5.93;2.40;;;8.70;40.20;;;;;;6244175;23;20427;-77
2021/04/08 11:55:46;;;;;;;4.10;2.20;;;8.90;40.10;;;;;;6245740;23;20323;-77
2021/04/08 11:58:26;;;;;;;4.32;2.38;;;8.90;40.20;;;;;;6243276;23;20087;-78
2021/04/08 12:00:52;;;;;;;5.30;2.28;;;9.10;40.70;;;;;;6245068;23;20075;-77
2021/04/08 12:03:21;;;;;;;5.05;2.35;;;9.30;40.40;;;;;;6242908;23;20501;-79
2021/04/08 12:05:47;;;;;;;5.57;2.50;;;9.30;40.70;;;;;;6244296;23;20100;-79
2021/04/08 12:08:14;;;;;;;7.03;2.72;;;9.30;40.00;;;;;;6245189;23;20008;-77
2021/04/08 12:10:40;;;;;;;4.00;2.17;;;9.30;39.50;;;;;;6243669;23;20079;-78
2021/04/08 12:13:08;;;;;;;4.57;2.13;;;9.40;39.70;;;;;;6243467;23;20066;-77
2021/04/08 12:15:44;;;;;;;3.95;2.28;;;9.30;39.70;;;;;;6243339;23;20016;-79
2021/04/08 12:18:16;;;;;;;3.35;2.00;;;9.30;40.20;;;;;;6243272;23;20019;-79
2021/04/08 12:20:41;;;;;;;5.90;3.00;;;9.30;41.20;;;;;;6244960;23;20086;-78
2021/04/08 12:23:13;;;;;;;4.78;2.70;;;9.40;40.60;;;;;;6243125;23;20052;-79
2021/04/08 12:25:44;;;;;;;5.78;2.70;;;9.50;40.90;;;;;;6243155;23;20410;-79
2021/04/08 12:28:09;;;;;;;6.38;2.88;;;9.50;40.10;;;;;;6243101;23;20435;-79
2021/04/08 12:30:45;;;;;;;6.35;3.05;;;9.50;40.90;;;;;;6242750;23;20003;-77
2021/04/08 12:33:12;;;;;;;5.15;2.33;;;9.50;40.90;;;;;;6243337;23;20010;-78
2021/04/08 12:35:37;;;;;;;4.70;2.30;;;9.60;41.30;;;;;;6242534;23;20376;-76
2021/04/08 12:38:03;;;;;;;8.98;2.78;;;9.70;41.30;;;;;;6244509;23;20031;-77
2021/04/08 12:40:28;;;;;;;4.78;2.85;;;9.70;40.70;;;;;;6242740;23;20081;-79
2021/04/08 12:42:54;;;;;;;5.95;2.53;;;9.80;40.00;;;;;;6243426;23;20392;-78
2021/04/08 12:45:20;;;;;;;14.65;6.10;;;10.10;40.10;;;;;;6242347;23;20008;-77
2021/04/08 12:47:45;;;;;;;27.08;11.02;;;10.20;40.00;;;;;;6244988;23;20027;-77
2021/04/08 12:50:12;;;;;;;7.03;3.15;;;10.50;38.70;;;;;;6242959;23;20009;-78
2021/04/08 12:52:37;;;;;;;6.85;2.53;;;10.50;39.40;;;;;;6244087;23;20111;-77
2021/04/08 12:55:04;;;;;;;3.95;2.75;;;10.30;38.60;;;;;;6268670;22;20047;-77
2021/04/08 12:57:30;;;;;;;6.63;2.63;;;10.30;38.40;;;;;;6269175;22;20374;-77
2021/04/08 12:59:55;;;;;;;4.60;2.67;;;10.40;38.30;;;;;;6244922;23;20012;-77
2021/04/08 13:02:21;;;;;;;4.70;2.40;;;10.70;38.40;;;;;;6244962;23;20026;-78
2021/04/08 13:04:47;;;;;;;6.20;2.95;;;11.20;38.30;;;;;;6245416;23;20445;-78
2021/04/08 13:07:12;;;;;;;5.82;2.85;;;11.40;37.40;;;;;;6245077;23;20455;-80
2021/04/08 13:09:38;;;;;;;4.65;2.60;;;11.30;36.90;;;;;;6245603;23;20435;-81
2021/04/08 13:12:04;;;;;;;6.05;2.53;;;11.30;36.90;;;;;;6246189;23;20000;-79